createdAt,value
2023-02-17T00:00:40.836Z,64.12
2023-02-17T00:03:43.231Z,64.59
2023-02-17T00:06:45.237Z,65.16
2023-02-17T00:09:47.259Z,64.40
2023-02-17T00:12:49.938Z,64.91
2023-02-17T00:15:52.033Z,64.01
2023-02-17T00:18:57.319Z,63.86
2023-02-17T00:22:01.559Z,64.94
2023-02-17T00:25:03.922Z,65.05
2023-02-17T00:28:06.035Z,65.24
2023-02-17T00:31:10.608Z,64.80
2023-02-17T00:34:13.120Z,65.86
2023-02-17T00:37:16.256Z,65.79
2023-02-17T00:40:18.500Z,67.26
2023-02-17T00:43:20.492Z,67.13
2023-02-17T00:46:22.972Z,66.56
2023-02-17T00:49:27.544Z,66.65
2023-02-17T00:52:29.490Z,66.62
2023-02-17T00:55:31.544Z,66.76
2023-02-17T00:58:33.826Z,66.27
2023-02-17T01:01:37.502Z,65.03
2023-02-17T01:04:40.800Z,63.82
2023-02-17T01:07:44.550Z,63.68
2023-02-17T01:10:49.296Z,63.50
2023-02-17T01:13:51.965Z,62.78
2023-02-17T01:16:54.714Z,62.56
2023-02-17T01:19:57.529Z,62.62
2023-02-17T01:22:59.611Z,63.49
2023-02-17T01:26:01.761Z,63.83
2023-02-17T01:29:05.289Z,63.06
2023-02-17T01:32:07.296Z,62.92
2023-02-17T01:35:09.924Z,62.85
2023-02-17T01:38:11.946Z,62.49
2023-02-17T01:41:16.543Z,61.65
2023-02-17T01:44:25.076Z,61.56
2023-02-17T01:47:27.529Z,61.56
2023-02-17T01:50:36.412Z,61.21
2023-02-17T01:53:48.667Z,60.42
2023-02-17T01:56:51.646Z,61.52
2023-02-17T01:59:57.067Z,61.21
2023-02-17T02:03:02.656Z,60.45
2023-02-17T02:06:11.799Z,59.92
2023-02-17T02:09:20.489Z,60.17
2023-02-17T02:12:26.959Z,61.14
2023-02-17T02:15:35.521Z,60.04
2023-02-17T02:18:46.418Z,59.29
2023-02-17T02:22:06.893Z,60.17
2023-02-17T02:25:22.250Z,59.31
2023-02-17T02:29:01.452Z,59.50
2023-02-17T02:32:18.411Z,59.11
2023-02-17T02:35:34.508Z,58.57
2023-02-17T02:38:53.186Z,58.88
2023-02-17T02:42:03.142Z,58.49
2023-02-17T02:45:09.047Z,58.61
2023-02-17T02:48:11.364Z,58.70
2023-02-17T02:51:28.440Z,58.54
2023-02-17T02:54:59.589Z,58.63
2023-02-17T02:58:14.707Z,57.98
2023-02-17T03:01:22.805Z,58.80
2023-02-17T03:04:36.286Z,58.96
2023-02-17T03:08:12.221Z,58.82
2023-02-17T03:11:32.387Z,58.77
2023-02-17T03:14:38.781Z,58.07
2023-02-17T03:17:43.264Z,57.63
2023-02-17T03:20:56.673Z,57.55
2023-02-17T03:24:00.474Z,57.42
2023-02-17T03:27:03.732Z,56.91
2023-02-17T03:30:06.913Z,57.31
2023-02-17T03:33:09.351Z,57.08
2023-02-17T03:36:11.419Z,57.24
2023-02-17T03:39:13.527Z,57.05
2023-02-17T03:42:15.900Z,57.13
2023-02-17T03:45:18.170Z,57.32
2023-02-17T03:48:20.185Z,58.17
2023-02-17T03:51:23.954Z,57.25
2023-02-17T03:54:26.971Z,57.11
2023-02-17T03:57:29.033Z,57.08
2023-02-17T04:00:31.310Z,56.77
2023-02-17T04:03:34.318Z,56.71
2023-02-17T04:06:36.879Z,56.62
2023-02-17T04:09:38.977Z,56.36
2023-02-17T04:12:41.193Z,56.38
2023-02-17T04:15:43.219Z,56.34
2023-02-17T04:18:45.226Z,56.73
2023-02-17T04:21:47.528Z,56.13
2023-02-17T04:24:49.665Z,55.92
2023-02-17T04:27:51.815Z,56.85
2023-02-17T04:30:54.005Z,57.08
2023-02-17T04:33:56.084Z,56.82
2023-02-17T04:36:58.217Z,56.59
2023-02-17T04:40:00.247Z,56.92
2023-02-17T04:43:02.503Z,55.79
2023-02-17T04:46:05.337Z,55.85
2023-02-17T04:49:07.617Z,56.48
2023-02-17T04:52:10.069Z,56.70
2023-02-17T04:55:12.208Z,55.82
2023-02-17T04:58:14.306Z,56.03
2023-02-17T05:01:16.468Z,55.95
2023-02-17T05:04:19.367Z,55.60
2023-02-17T05:07:21.751Z,55.26
2023-02-17T05:10:24.184Z,54.91
2023-02-17T05:13:27.666Z,55.03
2023-02-17T05:16:29.586Z,55.62
2023-02-17T05:19:31.703Z,55.68
2023-02-17T05:22:33.677Z,55.57
2023-02-17T05:25:35.753Z,55.42
2023-02-17T05:28:38.111Z,54.90
2023-02-17T05:31:40.365Z,55.82
2023-02-17T05:34:42.704Z,55.23
2023-02-17T05:37:44.862Z,54.92
2023-02-17T05:40:46.936Z,54.07
2023-02-17T05:43:49.047Z,54.78
2023-02-17T05:46:51.133Z,55.35
2023-02-17T05:49:53.073Z,63.48
2023-02-17T05:52:55.084Z,73.11
2023-02-17T05:55:57.290Z,70.32
2023-02-17T05:59:00.626Z,70.78
2023-02-17T06:02:02.664Z,71.24
2023-02-17T06:05:04.900Z,69.60
2023-02-17T06:08:07.244Z,66.94
2023-02-17T06:11:09.351Z,62.84
2023-02-17T06:14:11.399Z,65.51
2023-02-17T06:17:13.418Z,67.94
2023-02-17T06:20:16.021Z,68.93
2023-02-17T06:23:18.142Z,70.33
2023-02-17T06:26:20.250Z,70.44
2023-02-17T06:29:22.313Z,69.80
2023-02-17T06:32:24.396Z,68.77
2023-02-17T06:35:28.248Z,69.43
2023-02-17T06:38:30.413Z,70.02
2023-02-17T06:41:32.704Z,74.38
2023-02-17T06:44:34.780Z,71.36
2023-02-17T06:47:37.720Z,68.82
2023-02-17T06:50:39.872Z,65.74
2023-02-17T06:53:42.028Z,66.50
2023-02-17T06:56:44.205Z,68.63
2023-02-17T06:59:46.554Z,70.55
2023-02-17T07:02:48.743Z,70.33
2023-02-17T07:05:51.519Z,68.10
2023-02-17T07:08:54.585Z,68.70
2023-02-17T07:11:57.796Z,67.27
2023-02-17T07:15:00.094Z,66.13
2023-02-17T07:18:03.356Z,64.25
2023-02-17T07:21:07.224Z,63.77
2023-02-17T07:24:09.310Z,62.88
2023-02-17T07:27:11.458Z,63.73
2023-02-17T07:30:14.088Z,63.46
2023-02-17T07:33:16.321Z,62.46
2023-02-17T07:36:18.746Z,62.79
2023-02-17T07:39:20.812Z,62.87
2023-02-17T07:42:24.181Z,61.81
2023-02-17T07:45:27.363Z,61.00
2023-02-17T07:48:29.408Z,60.28
2023-02-17T07:51:31.645Z,60.98
2023-02-17T07:54:33.693Z,59.80
2023-02-17T07:57:36.112Z,59.27
2023-02-17T08:00:41.598Z,59.90
2023-02-17T08:03:43.817Z,59.26
2023-02-17T08:06:46.893Z,58.45
2023-02-17T08:10:07.660Z,58.27
2023-02-17T08:13:20.331Z,57.34
2023-02-17T08:16:22.357Z,57.51
2023-02-17T08:19:28.337Z,59.57
2023-02-17T08:22:31.933Z,58.05
2023-02-17T08:25:35.278Z,59.02
2023-02-17T08:28:37.445Z,58.39
2023-02-17T08:31:39.644Z,57.29
2023-02-17T08:34:41.799Z,58.82
2023-02-17T08:37:43.829Z,59.25
2023-02-17T08:40:45.879Z,58.40
2023-02-17T08:43:48.940Z,58.79
2023-02-17T08:46:52.560Z,58.17
2023-02-17T08:49:55.110Z,57.13
2023-02-17T08:52:57.199Z,63.81
2023-02-17T08:55:59.242Z,56.24
2023-02-17T08:59:03.398Z,54.93
2023-02-17T09:02:06.778Z,53.72
2023-02-17T09:05:08.986Z,53.10
2023-02-17T09:08:11.194Z,52.91
2023-02-17T09:11:15.574Z,46.88
2023-02-17T09:14:17.738Z,41.92
2023-02-17T09:17:19.845Z,38.26
2023-02-17T09:20:25.022Z,37.73
2023-02-17T09:23:27.334Z,38.71
2023-02-17T09:26:29.356Z,39.57
2023-02-17T09:29:31.654Z,38.96
2023-02-17T09:32:33.783Z,40.29
2023-02-17T09:35:37.803Z,40.56
2023-02-17T09:38:42.062Z,40.41
2023-02-17T09:41:52.147Z,40.83
2023-02-17T09:45:05.013Z,41.00
2023-02-17T09:48:11.952Z,64.55
2023-02-17T09:51:28.636Z,48.27
2023-02-17T09:55:00.508Z,48.52
2023-02-17T09:58:08.451Z,49.10
2023-02-17T10:01:20.395Z,49.02
2023-02-17T10:04:41.492Z,48.73
2023-02-17T10:07:53.506Z,48.41
2023-02-17T10:11:04.749Z,63.95
2023-02-17T10:14:17.707Z,56.89
2023-02-17T10:17:48.608Z,57.33
2023-02-17T10:21:19.609Z,56.31
2023-02-17T10:24:21.747Z,54.59
2023-02-17T10:27:43.360Z,55.46
2023-02-17T10:30:59.953Z,55.74
2023-02-17T10:34:12.923Z,57.29
2023-02-17T10:37:25.161Z,55.80
2023-02-17T10:40:29.227Z,56.25
2023-02-17T10:43:33.752Z,55.44
2023-02-17T10:46:35.977Z,55.44
2023-02-17T10:49:49.861Z,54.08
2023-02-17T10:52:53.173Z,54.46
2023-02-17T10:56:18.675Z,55.06
2023-02-17T10:59:39.031Z,54.42
2023-02-17T11:02:46.626Z,55.10
2023-02-17T11:06:07.201Z,55.32
2023-02-17T11:09:28.779Z,54.87
2023-02-17T11:12:40.565Z,54.89
2023-02-17T11:15:47.948Z,53.95
2023-02-17T11:18:50.564Z,54.49
2023-02-17T11:21:54.412Z,54.29
2023-02-17T11:25:02.088Z,54.66
2023-02-17T11:28:24.000Z,53.48
2023-02-17T11:31:29.684Z,54.01
2023-02-17T11:34:36.257Z,53.60
2023-02-17T11:37:42.832Z,53.58
2023-02-17T11:41:02.447Z,53.65
2023-02-17T11:44:04.693Z,53.66
2023-02-17T11:47:12.872Z,55.25
2023-02-17T11:50:41.790Z,54.31
2023-02-17T11:53:52.462Z,54.08
2023-02-17T11:57:06.594Z,54.27
2023-02-17T12:00:59.368Z,55.17
2023-02-17T12:04:10.797Z,54.64
2023-02-17T12:07:40.238Z,54.78
2023-02-17T12:11:13.381Z,53.68
2023-02-17T12:14:43.735Z,54.06
2023-02-17T12:17:56.603Z,54.59
2023-02-17T12:21:12.254Z,55.01
2023-02-17T12:24:49.633Z,55.11
2023-02-17T12:28:10.683Z,55.35
2023-02-17T12:31:42.747Z,55.20
2023-02-17T12:34:53.259Z,55.50
2023-02-17T12:38:09.724Z,55.03
2023-02-17T12:41:31.045Z,55.55
2023-02-17T12:44:41.554Z,55.01
2023-02-17T12:48:06.938Z,54.84
2023-02-17T12:51:23.378Z,54.93
2023-02-17T12:55:04.807Z,54.27
2023-02-17T12:58:16.140Z,53.82
2023-02-17T13:01:22.921Z,53.78
2023-02-17T13:04:29.187Z,54.38
2023-02-17T13:07:49.940Z,54.80
2023-02-17T13:11:05.907Z,54.56
2023-02-17T13:14:47.313Z,53.91
2023-02-17T13:18:03.199Z,53.84
2023-02-17T13:21:24.917Z,53.38
2023-02-17T13:24:36.860Z,54.57
2023-02-17T13:27:40.493Z,54.10
2023-02-17T13:30:45.346Z,54.83
2023-02-17T13:33:49.409Z,54.79
2023-02-17T13:36:51.876Z,53.72
2023-02-17T13:39:54.310Z,53.23
2023-02-17T13:42:59.506Z,53.56
2023-02-17T13:46:04.226Z,53.36
2023-02-17T13:49:06.966Z,53.48
2023-02-17T13:52:22.948Z,52.92
2023-02-17T13:55:25.134Z,54.59
2023-02-17T13:58:32.644Z,56.66
2023-02-17T14:01:38.345Z,57.56
2023-02-17T14:04:40.436Z,55.66
2023-02-17T14:07:42.568Z,55.56
2023-02-17T14:10:45.180Z,56.95
2023-02-17T14:13:49.798Z,57.89
2023-02-17T14:16:59.567Z,57.30
2023-02-17T14:20:01.803Z,58.84
2023-02-17T14:23:12.846Z,58.18
2023-02-17T14:26:30.719Z,57.56
2023-02-17T14:29:44.564Z,56.86
2023-02-17T14:32:46.613Z,57.11
2023-02-17T14:36:04.531Z,56.19
2023-02-17T14:39:09.320Z,56.67
2023-02-17T14:42:11.286Z,56.80
2023-02-17T14:45:15.404Z,55.87
2023-02-17T14:48:18.020Z,56.30
2023-02-17T14:51:23.534Z,55.61
2023-02-17T14:54:27.108Z,56.16
2023-02-17T14:57:30.947Z,54.97
2023-02-17T15:00:33.033Z,55.98
2023-02-17T15:03:35.061Z,55.74
2023-02-17T15:06:41.740Z,55.40
2023-02-17T15:09:49.110Z,55.29
2023-02-17T15:12:51.731Z,54.53
2023-02-17T15:15:53.937Z,54.13
2023-02-17T15:18:56.003Z,54.35
2023-02-17T15:22:01.398Z,56.17
2023-02-17T15:25:03.326Z,55.31
2023-02-17T15:28:06.162Z,55.65
2023-02-17T15:31:13.186Z,55.49
2023-02-17T15:34:22.590Z,56.30
2023-02-17T15:37:24.544Z,55.59
2023-02-17T15:40:28.433Z,54.73
2023-02-17T15:46:42.252Z,56.55
2023-02-17T15:49:44.955Z,56.46
2023-02-17T15:52:47.423Z,57.47
2023-02-17T15:55:50.151Z,58.90
2023-02-17T15:58:53.341Z,57.09
2023-02-17T16:02:01.360Z,58.21
2023-02-17T16:05:03.531Z,59.64
2023-02-17T16:08:06.398Z,59.31
2023-02-17T16:11:12.682Z,59.11
2023-02-17T16:14:28.492Z,58.58
2023-02-17T16:17:30.628Z,57.92
2023-02-17T16:20:34.866Z,58.24
2023-02-17T16:23:37.250Z,58.80
2023-02-17T16:26:40.132Z,57.87
2023-02-17T16:29:42.976Z,57.64
2023-02-17T16:32:45.471Z,58.77
2023-02-17T16:35:50.526Z,59.05
2023-02-17T16:38:52.550Z,59.00
2023-02-17T16:41:54.465Z,59.73
2023-02-17T16:44:56.413Z,60.01
2023-02-17T16:48:01.085Z,61.83
2023-02-17T16:51:03.005Z,60.60
2023-02-17T16:54:05.173Z,60.05
2023-02-17T16:57:07.200Z,56.09
2023-02-17T17:00:12.958Z,53.28
2023-02-17T17:03:15.098Z,53.13
2023-02-17T17:06:19.926Z,53.46
2023-02-17T17:09:24.629Z,54.17
2023-02-17T17:12:26.700Z,53.47
2023-02-17T17:15:29.681Z,53.33
2023-02-17T17:18:36.251Z,53.48
2023-02-17T17:21:38.372Z,53.49
2023-02-17T17:24:40.560Z,54.11
2023-02-17T17:27:42.488Z,58.08
2023-02-17T17:30:45.276Z,59.98
2023-02-17T17:33:48.837Z,61.46
2023-02-17T17:36:51.135Z,62.45
2023-02-17T17:39:53.059Z,63.79
2023-02-17T17:42:56.467Z,61.93
2023-02-17T17:45:58.939Z,61.46
2023-02-17T17:49:01.556Z,64.47
2023-02-17T17:52:05.145Z,66.16
2023-02-17T17:55:09.653Z,64.88
2023-02-17T17:58:16.504Z,66.39
2023-02-17T18:01:24.108Z,70.33
2023-02-17T18:04:30.178Z,66.23
2023-02-17T18:07:38.023Z,67.04
2023-02-17T18:10:42.790Z,68.93
2023-02-17T18:13:52.760Z,71.05
2023-02-17T18:16:58.424Z,68.80
2023-02-17T18:20:02.040Z,69.20
2023-02-17T18:23:04.445Z,67.63
2023-02-17T18:26:07.244Z,68.80
2023-02-17T18:29:13.964Z,64.07
2023-02-17T18:32:16.214Z,65.69
2023-02-17T18:35:19.296Z,64.14
2023-02-17T18:38:21.444Z,66.87
2023-02-17T18:41:28.066Z,65.89
2023-02-17T18:44:30.141Z,65.54
2023-02-17T18:47:32.164Z,64.78
2023-02-17T18:50:36.302Z,68.40
2023-02-17T18:53:38.739Z,71.72
2023-02-17T18:56:41.737Z,74.20
2023-02-17T18:59:44.469Z,82.84
2023-02-17T19:02:46.915Z,81.66
2023-02-17T19:05:50.014Z,80.88
2023-02-17T19:08:52.819Z,81.11
2023-02-17T19:11:55.466Z,83.13
2023-02-17T19:14:58.273Z,81.72
2023-02-17T19:18:00.684Z,84.75
2023-02-17T19:21:03.660Z,84.31
2023-02-17T19:24:10.070Z,79.22
2023-02-17T19:27:13.172Z,80.16
2023-02-17T19:30:20.097Z,80.28
2023-02-17T19:33:23.347Z,82.38
2023-02-17T19:36:26.878Z,78.47
2023-02-17T19:39:28.961Z,78.00
2023-02-17T19:42:31.973Z,76.70
2023-02-17T19:45:34.242Z,77.74
2023-02-17T19:48:38.352Z,75.63
2023-02-17T19:51:42.338Z,74.53
2023-02-17T19:54:44.756Z,76.71
2023-02-17T19:57:50.258Z,76.60
2023-02-17T20:00:55.344Z,76.24
2023-02-17T20:04:02.413Z,77.47
2023-02-17T20:07:05.403Z,85.45
2023-02-17T20:10:11.878Z,84.48
2023-02-17T20:13:14.395Z,83.04
2023-02-17T20:16:20.041Z,85.63
2023-02-17T20:19:22.426Z,95.81
2023-02-17T20:22:29.629Z,95.24
2023-02-17T20:25:32.162Z,87.13
2023-02-17T20:28:34.441Z,88.34
2023-02-17T20:31:38.205Z,84.68
2023-02-17T20:34:43.788Z,85.36
2023-02-17T20:37:45.777Z,83.35
2023-02-17T20:40:47.825Z,82.26
2023-02-17T20:43:51.014Z,79.79
2023-02-17T20:46:53.896Z,80.35
2023-02-17T20:49:56.373Z,80.45
2023-02-17T20:52:59.326Z,76.50
2023-02-17T20:56:02.787Z,76.43
2023-02-17T20:59:06.369Z,75.08
2023-02-17T21:02:12.592Z,75.46
2023-02-17T21:05:14.870Z,70.52
2023-02-17T21:08:17.022Z,70.05
2023-02-17T21:11:19.265Z,70.76
2023-02-17T21:14:21.421Z,67.51
2023-02-17T21:17:24.494Z,66.14
2023-02-17T21:20:26.526Z,67.28
2023-02-17T21:23:28.910Z,68.14
2023-02-17T21:26:34.858Z,62.02
2023-02-17T21:29:37.339Z,63.80
2023-02-17T21:32:39.494Z,64.57
2023-02-17T21:35:44.443Z,65.42
2023-02-17T21:38:47.747Z,60.62
2023-02-17T21:41:51.541Z,61.34
2023-02-17T21:44:56.898Z,63.22
2023-02-17T21:48:01.072Z,59.33
2023-02-17T21:51:10.009Z,59.32
2023-02-17T21:54:12.595Z,60.86
2023-02-17T21:57:14.834Z,62.11
2023-02-17T22:00:17.412Z,56.93
2023-02-17T22:03:19.563Z,58.67
2023-02-17T22:06:30.199Z,60.58
2023-02-17T22:09:32.269Z,60.12
2023-02-17T22:12:37.519Z,60.33
2023-02-17T22:15:40.319Z,60.35
2023-02-17T22:18:55.847Z,61.24
2023-02-17T22:22:07.319Z,61.49
2023-02-17T22:25:10.605Z,61.12
2023-02-17T22:28:17.343Z,63.47
2023-02-17T22:31:22.691Z,63.14
2023-02-17T22:34:26.237Z,63.04
2023-02-17T22:37:28.421Z,63.42
2023-02-17T22:40:31.964Z,63.47
2023-02-17T22:43:40.631Z,64.31
2023-02-17T22:46:43.857Z,64.28
2023-02-17T22:49:46.170Z,63.52
2023-02-17T22:52:48.405Z,62.98
2023-02-17T22:55:58.183Z,62.57
2023-02-17T22:59:03.908Z,61.69
2023-02-17T23:02:05.946Z,61.66
2023-02-17T23:05:08.393Z,60.66
2023-02-17T23:08:11.322Z,61.44
2023-02-17T23:11:16.304Z,61.17
2023-02-17T23:14:20.065Z,60.72
2023-02-17T23:17:22.398Z,60.99
2023-02-17T23:20:25.379Z,60.98
2023-02-17T23:23:27.432Z,60.39
2023-02-17T23:26:29.715Z,59.92
2023-02-17T23:29:32.751Z,59.98
2023-02-17T23:32:36.060Z,59.92
2023-02-17T23:35:44.896Z,59.84
2023-02-17T23:38:47.200Z,59.96
2023-02-17T23:41:49.318Z,59.93
2023-02-17T23:44:51.271Z,59.66
2023-02-17T23:47:53.364Z,60.25
2023-02-17T23:51:00.233Z,60.25
2023-02-17T23:54:02.342Z,60.07
2023-02-17T23:57:04.590Z,60.39
